sensor_id;sensor_type;location;lat;lon;timestamp;P1;durP1;ratioP1;P2;durP2;ratioP2
13421;SDS011;6782;55.904;13.396;2022-09-09T00:00:55;5.82;;;3.20;;
13421;SDS011;6782;55.904;13.396;2022-09-09T00:03:52;5.43;;;3.30;;
13421;SDS011;6782;55.904;13.396;2022-09-09T00:06:45;3.65;;;3.33;;
13421;SDS011;6782;55.904;13.396;2022-09-09T00:09:39;5.55;;;3.67;;
13421;SDS011;6782;55.904;13.396;2022-09-09T00:12:36;6.75;;;3.95;;
13421;SDS011;6782;55.904;13.396;2022-09-09T00:15:31;5.78;;;3.35;;
13421;SDS011;6782;55.904;13.396;2022-09-09T00:18:27;5.32;;;3.78;;
13421;SDS011;6782;55.904;13.396;2022-09-09T00:21:33;4.00;;;3.60;;
13421;SDS011;6782;55.904;13.396;2022-09-09T00:24:24;4.57;;;3.92;;
13421;SDS011;6782;55.904;13.396;2022-09-09T00:27:16;6.90;;;4.15;;
13421;SDS011;6782;55.904;13.396;2022-09-09T00:30:14;7.15;;;3.83;;
13421;SDS011;6782;55.904;13.396;2022-09-09T00:33:09;9.25;;;4.13;;
13421;SDS011;6782;55.904;13.396;2022-09-09T00:36:02;6.35;;;4.30;;
13421;SDS011;6782;55.904;13.396;2022-09-09T00:38:52;7.45;;;4.47;;
13421;SDS011;6782;55.904;13.396;2022-09-09T00:41:47;7.82;;;3.60;;
13421;SDS011;6782;55.904;13.396;2022-09-09T00:44:50;6.57;;;4.30;;
13421;SDS011;6782;55.904;13.396;2022-09-09T00:47:40;6.88;;;4.20;;
13421;SDS011;6782;55.904;13.396;2022-09-09T00:50:35;8.52;;;4.97;;
13421;SDS011;6782;55.904;13.396;2022-09-09T00:53:36;7.30;;;4.55;;
13421;SDS011;6782;55.904;13.396;2022-09-09T00:56:44;6.70;;;4.25;;
13421;SDS011;6782;55.904;13.396;2022-09-09T00:59:44;8.65;;;4.38;;
13421;SDS011;6782;55.904;13.396;2022-09-09T01:02:35;6.93;;;4.13;;
13421;SDS011;6782;55.904;13.396;2022-09-09T01:05:30;11.90;;;4.57;;
13421;SDS011;6782;55.904;13.396;2022-09-09T01:08:28;7.50;;;4.00;;
13421;SDS011;6782;55.904;13.396;2022-09-09T01:11:41;9.68;;;4.30;;
13421;SDS011;6782;55.904;13.396;2022-09-09T01:14:39;8.07;;;4.47;;
13421;SDS011;6782;55.904;13.396;2022-09-09T01:17:30;8.57;;;4.30;;
13421;SDS011;6782;55.904;13.396;2022-09-09T01:20:23;6.57;;;4.28;;
13421;SDS011;6782;55.904;13.396;2022-09-09T01:23:19;8.02;;;4.53;;
13421;SDS011;6782;55.904;13.396;2022-09-09T01:26:37;7.60;;;4.40;;
13421;SDS011;6782;55.904;13.396;2022-09-09T01:29:28;6.88;;;4.15;;
13421;SDS011;6782;55.904;13.396;2022-09-09T01:35:29;12.52;;;4.95;;
13421;SDS011;6782;55.904;13.396;2022-09-09T01:38:24;6.22;;;4.07;;
13421;SDS011;6782;55.904;13.396;2022-09-09T01:41:14;6.15;;;3.97;;
13421;SDS011;6782;55.904;13.396;2022-09-09T01:44:04;7.38;;;4.15;;
13421;SDS011;6782;55.904;13.396;2022-09-09T01:46:52;7.70;;;4.25;;
13421;SDS011;6782;55.904;13.396;2022-09-09T01:49:39;7.35;;;4.32;;
13421;SDS011;6782;55.904;13.396;2022-09-09T01:52:27;7.22;;;3.97;;
13421;SDS011;6782;55.904;13.396;2022-09-09T01:55:14;6.07;;;4.22;;
13421;SDS011;6782;55.904;13.396;2022-09-09T01:58:07;7.83;;;4.27;;
13421;SDS011;6782;55.904;13.396;2022-09-09T02:01:08;6.35;;;4.03;;
13421;SDS011;6782;55.904;13.396;2022-09-09T02:04:02;5.60;;;3.97;;
13421;SDS011;6782;55.904;13.396;2022-09-09T02:06:57;7.85;;;4.10;;
13421;SDS011;6782;55.904;13.396;2022-09-09T02:09:47;5.70;;;4.00;;
13421;SDS011;6782;55.904;13.396;2022-09-09T02:12:40;8.35;;;4.63;;
13421;SDS011;6782;55.904;13.396;2022-09-09T02:15:33;7.43;;;3.63;;
13421;SDS011;6782;55.904;13.396;2022-09-09T02:18:28;5.93;;;3.70;;
13421;SDS011;6782;55.904;13.396;2022-09-09T02:21:20;4.67;;;4.07;;
13421;SDS011;6782;55.904;13.396;2022-09-09T02:24:09;5.72;;;3.70;;
13421;SDS011;6782;55.904;13.396;2022-09-09T02:27:01;5.30;;;4.20;;
13421;SDS011;6782;55.904;13.396;2022-09-09T02:29:54;6.77;;;3.70;;
13421;SDS011;6782;55.904;13.396;2022-09-09T02:32:45;6.90;;;4.10;;
13421;SDS011;6782;55.904;13.396;2022-09-09T02:35:37;7.90;;;4.10;;
13421;SDS011;6782;55.904;13.396;2022-09-09T02:38:26;5.95;;;4.30;;
13421;SDS011;6782;55.904;13.396;2022-09-09T02:41:17;5.13;;;3.85;;
13421;SDS011;6782;55.904;13.396;2022-09-09T02:44:05;6.15;;;3.95;;
13421;SDS011;6782;55.904;13.396;2022-09-09T02:47:00;5.80;;;4.33;;
13421;SDS011;6782;55.904;13.396;2022-09-09T02:50:08;5.78;;;4.18;;
13421;SDS011;6782;55.904;13.396;2022-09-09T02:53:04;9.25;;;4.35;;
13421;SDS011;6782;55.904;13.396;2022-09-09T02:55:57;7.57;;;4.40;;
13421;SDS011;6782;55.904;13.396;2022-09-09T02:58:46;4.97;;;4.22;;
13421;SDS011;6782;55.904;13.396;2022-09-09T03:01:34;5.88;;;4.18;;
13421;SDS011;6782;55.904;13.396;2022-09-09T03:04:22;5.75;;;4.35;;
13421;SDS011;6782;55.904;13.396;2022-09-09T03:07:10;5.88;;;3.83;;
13421;SDS011;6782;55.904;13.396;2022-09-09T03:09:59;5.60;;;4.15;;
13421;SDS011;6782;55.904;13.396;2022-09-09T03:12:46;4.85;;;3.90;;
13421;SDS011;6782;55.904;13.396;2022-09-09T03:15:33;8.85;;;4.53;;
13421;SDS011;6782;55.904;13.396;2022-09-09T03:18:21;8.13;;;4.55;;
13421;SDS011;6782;55.904;13.396;2022-09-09T03:21:08;7.00;;;4.07;;
13421;SDS011;6782;55.904;13.396;2022-09-09T03:23:56;6.15;;;4.45;;
13421;SDS011;6782;55.904;13.396;2022-09-09T03:26:45;7.50;;;4.70;;
13421;SDS011;6782;55.904;13.396;2022-09-09T03:29:32;7.05;;;4.82;;
13421;SDS011;6782;55.904;13.396;2022-09-09T03:32:19;7.35;;;4.07;;
13421;SDS011;6782;55.904;13.396;2022-09-09T03:35:08;6.05;;;4.35;;
13421;SDS011;6782;55.904;13.396;2022-09-09T03:37:55;8.32;;;4.68;;
13421;SDS011;6782;55.904;13.396;2022-09-09T03:40:48;5.07;;;4.27;;
13421;SDS011;6782;55.904;13.396;2022-09-09T03:43:38;5.63;;;4.10;;
13421;SDS011;6782;55.904;13.396;2022-09-09T03:46:25;6.60;;;4.77;;
13421;SDS011;6782;55.904;13.396;2022-09-09T03:49:12;8.20;;;4.30;;
13421;SDS011;6782;55.904;13.396;2022-09-09T03:52:00;6.75;;;4.43;;
13421;SDS011;6782;55.904;13.396;2022-09-09T03:54:48;6.15;;;4.18;;
13421;SDS011;6782;55.904;13.396;2022-09-09T03:57:35;6.50;;;4.37;;
13421;SDS011;6782;55.904;13.396;2022-09-09T04:00:24;7.00;;;4.47;;
13421;SDS011;6782;55.904;13.396;2022-09-09T04:03:12;6.00;;;4.40;;
13421;SDS011;6782;55.904;13.396;2022-09-09T04:05:59;6.20;;;3.90;;
13421;SDS011;6782;55.904;13.396;2022-09-09T04:08:50;6.53;;;4.87;;
13421;SDS011;6782;55.904;13.396;2022-09-09T04:11:38;5.83;;;4.50;;
13421;SDS011;6782;55.904;13.396;2022-09-09T04:14:25;6.23;;;4.50;;
13421;SDS011;6782;55.904;13.396;2022-09-09T04:17:15;8.97;;;4.83;;
13421;SDS011;6782;55.904;13.396;2022-09-09T04:20:03;6.67;;;4.93;;
13421;SDS011;6782;55.904;13.396;2022-09-09T04:22:50;6.27;;;4.70;;
13421;SDS011;6782;55.904;13.396;2022-09-09T04:25:37;7.73;;;4.60;;
13421;SDS011;6782;55.904;13.396;2022-09-09T04:28:30;6.80;;;4.40;;
13421;SDS011;6782;55.904;13.396;2022-09-09T04:31:18;7.10;;;5.00;;
13421;SDS011;6782;55.904;13.396;2022-09-09T04:34:10;8.93;;;5.07;;
13421;SDS011;6782;55.904;13.396;2022-09-09T04:36:57;6.13;;;4.77;;
13421;SDS011;6782;55.904;13.396;2022-09-09T04:39:45;5.63;;;4.30;;
13421;SDS011;6782;55.904;13.396;2022-09-09T04:42:34;8.85;;;5.13;;
13421;SDS011;6782;55.904;13.396;2022-09-09T04:45:21;5.63;;;4.47;;
13421;SDS011;6782;55.904;13.396;2022-09-09T04:48:09;5.75;;;4.75;;
13421;SDS011;6782;55.904;13.396;2022-09-09T04:50:58;6.97;;;4.13;;
13421;SDS011;6782;55.904;13.396;2022-09-09T04:53:46;6.77;;;4.50;;
13421;SDS011;6782;55.904;13.396;2022-09-09T04:56:35;4.93;;;4.40;;
13421;SDS011;6782;55.904;13.396;2022-09-09T04:59:22;5.82;;;4.53;;
13421;SDS011;6782;55.904;13.396;2022-09-09T05:02:09;4.80;;;4.40;;
13421;SDS011;6782;55.904;13.396;2022-09-09T05:04:57;7.07;;;4.38;;
13421;SDS011;6782;55.904;13.396;2022-09-09T05:07:47;5.47;;;4.63;;
13421;SDS011;6782;55.904;13.396;2022-09-09T05:10:37;5.57;;;4.27;;
13421;SDS011;6782;55.904;13.396;2022-09-09T05:13:28;5.82;;;4.47;;
13421;SDS011;6782;55.904;13.396;2022-09-09T05:16:17;6.13;;;4.20;;
13421;SDS011;6782;55.904;13.396;2022-09-09T05:19:05;7.50;;;3.92;;
13421;SDS011;6782;55.904;13.396;2022-09-09T05:21:53;5.95;;;4.20;;
13421;SDS011;6782;55.904;13.396;2022-09-09T05:24:43;5.30;;;4.17;;
13421;SDS011;6782;55.904;13.396;2022-09-09T05:27:34;5.70;;;4.00;;
13421;SDS011;6782;55.904;13.396;2022-09-09T05:30:23;4.50;;;3.65;;
13421;SDS011;6782;55.904;13.396;2022-09-09T05:33:11;5.37;;;3.67;;
13421;SDS011;6782;55.904;13.396;2022-09-09T05:36:00;5.03;;;3.65;;
13421;SDS011;6782;55.904;13.396;2022-09-09T05:38:49;4.70;;;3.88;;
13421;SDS011;6782;55.904;13.396;2022-09-09T05:41:40;6.57;;;3.97;;
13421;SDS011;6782;55.904;13.396;2022-09-09T05:44:28;6.13;;;4.53;;
13421;SDS011;6782;55.904;13.396;2022-09-09T05:47:15;6.25;;;4.15;;
13421;SDS011;6782;55.904;13.396;2022-09-09T05:50:03;4.43;;;4.03;;
13421;SDS011;6782;55.904;13.396;2022-09-09T05:52:54;5.22;;;4.07;;
13421;SDS011;6782;55.904;13.396;2022-09-09T05:55:42;4.70;;;3.92;;
13421;SDS011;6782;55.904;13.396;2022-09-09T05:58:32;5.68;;;4.22;;
13421;SDS011;6782;55.904;13.396;2022-09-09T06:01:21;7.18;;;4.30;;
13421;SDS011;6782;55.904;13.396;2022-09-09T06:04:10;5.70;;;4.40;;
13421;SDS011;6782;55.904;13.396;2022-09-09T06:06:58;4.82;;;3.88;;
13421;SDS011;6782;55.904;13.396;2022-09-09T06:09:45;5.40;;;3.97;;
13421;SDS011;6782;55.904;13.396;2022-09-09T06:12:32;5.00;;;4.03;;
13421;SDS011;6782;55.904;13.396;2022-09-09T06:15:22;5.53;;;4.00;;
13421;SDS011;6782;55.904;13.396;2022-09-09T06:18:09;5.60;;;4.78;;
13421;SDS011;6782;55.904;13.396;2022-09-09T06:20:56;5.13;;;4.40;;
13421;SDS011;6782;55.904;13.396;2022-09-09T06:23:46;4.82;;;3.90;;
13421;SDS011;6782;55.904;13.396;2022-09-09T06:26:34;5.18;;;4.65;;
13421;SDS011;6782;55.904;13.396;2022-09-09T06:29:22;5.65;;;4.20;;
13421;SDS011;6782;55.904;13.396;2022-09-09T06:32:11;4.70;;;4.30;;
13421;SDS011;6782;55.904;13.396;2022-09-09T06:34:58;5.00;;;4.10;;
13421;SDS011;6782;55.904;13.396;2022-09-09T06:37:46;8.43;;;4.43;;
13421;SDS011;6782;55.904;13.396;2022-09-09T06:40:34;5.28;;;4.35;;
13421;SDS011;6782;55.904;13.396;2022-09-09T06:43:22;5.53;;;4.25;;
13421;SDS011;6782;55.904;13.396;2022-09-09T06:46:11;4.80;;;3.75;;
13421;SDS011;6782;55.904;13.396;2022-09-09T06:49:01;4.00;;;3.70;;
13421;SDS011;6782;55.904;13.396;2022-09-09T06:51:48;4.78;;;3.75;;
13421;SDS011;6782;55.904;13.396;2022-09-09T06:54:35;3.97;;;3.60;;
13421;SDS011;6782;55.904;13.396;2022-09-09T06:57:23;4.97;;;3.80;;
13421;SDS011;6782;55.904;13.396;2022-09-09T07:00:10;5.78;;;3.83;;
13421;SDS011;6782;55.904;13.396;2022-09-09T07:02:59;5.47;;;3.67;;
13421;SDS011;6782;55.904;13.396;2022-09-09T07:05:55;3.70;;;3.28;;
13421;SDS011;6782;55.904;13.396;2022-09-09T07:08:42;5.07;;;3.50;;
13421;SDS011;6782;55.904;13.396;2022-09-09T07:11:30;4.32;;;3.25;;
13421;SDS011;6782;55.904;13.396;2022-09-09T07:14:19;4.15;;;3.10;;
13421;SDS011;6782;55.904;13.396;2022-09-09T07:17:06;4.28;;;3.50;;
13421;SDS011;6782;55.904;13.396;2022-09-09T07:19:53;3.50;;;3.20;;
13421;SDS011;6782;55.904;13.396;2022-09-09T07:22:43;3.20;;;2.90;;
13421;SDS011;6782;55.904;13.396;2022-09-09T07:25:30;3.42;;;2.85;;
13421;SDS011;6782;55.904;13.396;2022-09-09T07:28:18;3.67;;;2.80;;
13421;SDS011;6782;55.904;13.396;2022-09-09T07:31:05;3.00;;;2.50;;
13421;SDS011;6782;55.904;13.396;2022-09-09T07:33:53;3.40;;;2.75;;
13421;SDS011;6782;55.904;13.396;2022-09-09T07:36:40;4.10;;;2.88;;
13421;SDS011;6782;55.904;13.396;2022-09-09T07:39:30;2.67;;;2.47;;
13421;SDS011;6782;55.904;13.396;2022-09-09T07:42:17;2.67;;;2.47;;
13421;SDS011;6782;55.904;13.396;2022-09-09T07:45:05;2.80;;;2.60;;
13421;SDS011;6782;55.904;13.396;2022-09-09T07:47:52;2.60;;;2.40;;
13421;SDS011;6782;55.904;13.396;2022-09-09T07:50:42;2.25;;;2.10;;
13421;SDS011;6782;55.904;13.396;2022-09-09T07:53:29;2.75;;;1.95;;
13421;SDS011;6782;55.904;13.396;2022-09-09T07:56:18;2.40;;;2.00;;
13421;SDS011;6782;55.904;13.396;2022-09-09T07:59:07;2.50;;;2.30;;
13421;SDS011;6782;55.904;13.396;2022-09-09T08:01:55;2.70;;;2.00;;
13421;SDS011;6782;55.904;13.396;2022-09-09T08:04:43;2.00;;;1.90;;
13421;SDS011;6782;55.904;13.396;2022-09-09T08:07:31;2.10;;;2.00;;
13421;SDS011;6782;55.904;13.396;2022-09-09T08:10:19;2.28;;;2.05;;
13421;SDS011;6782;55.904;13.396;2022-09-09T08:13:09;3.00;;;2.53;;
13421;SDS011;6782;55.904;13.396;2022-09-09T08:16:08;3.45;;;1.95;;
13421;SDS011;6782;55.904;13.396;2022-09-09T08:18:57;2.10;;;1.90;;
13421;SDS011;6782;55.904;13.396;2022-09-09T08:21:45;2.03;;;1.65;;
13421;SDS011;6782;55.904;13.396;2022-09-09T08:24:34;2.08;;;1.80;;
13421;SDS011;6782;55.904;13.396;2022-09-09T08:27:21;1.97;;;1.87;;
13421;SDS011;6782;55.904;13.396;2022-09-09T08:30:11;3.80;;;2.20;;
13421;SDS011;6782;55.904;13.396;2022-09-09T08:32:59;2.15;;;2.00;;
13421;SDS011;6782;55.904;13.396;2022-09-09T08:35:49;1.98;;;1.83;;
13421;SDS011;6782;55.904;13.396;2022-09-09T08:38:37;2.10;;;2.00;;
13421;SDS011;6782;55.904;13.396;2022-09-09T08:48:12;2.67;;;1.95;;
13421;SDS011;6782;55.904;13.396;2022-09-09T08:51:09;2.17;;;2.00;;
13421;SDS011;6782;55.904;13.396;2022-09-09T08:53:58;2.30;;;1.90;;
13421;SDS011;6782;55.904;13.396;2022-09-09T08:56:49;2.10;;;1.80;;
13421;SDS011;6782;55.904;13.396;2022-09-09T08:59:38;1.92;;;1.83;;
13421;SDS011;6782;55.904;13.396;2022-09-09T09:02:27;2.35;;;2.05;;
13421;SDS011;6782;55.904;13.396;2022-09-09T09:05:28;2.25;;;2.13;;
13421;SDS011;6782;55.904;13.396;2022-09-09T09:08:25;3.05;;;2.00;;
13421;SDS011;6782;55.904;13.396;2022-09-09T09:11:17;2.45;;;2.05;;
13421;SDS011;6782;55.904;13.396;2022-09-09T09:14:08;7.70;;;3.22;;
13421;SDS011;6782;55.904;13.396;2022-09-09T09:16:59;2.40;;;1.98;;
13421;SDS011;6782;55.904;13.396;2022-09-09T09:19:48;2.47;;;1.95;;
13421;SDS011;6782;55.904;13.396;2022-09-09T09:22:39;2.70;;;2.35;;
13421;SDS011;6782;55.904;13.396;2022-09-09T09:25:34;2.38;;;2.17;;
13421;SDS011;6782;55.904;13.396;2022-09-09T09:28:27;2.42;;;2.22;;
13421;SDS011;6782;55.904;13.396;2022-09-09T09:31:16;3.00;;;2.10;;
13421;SDS011;6782;55.904;13.396;2022-09-09T09:34:07;3.20;;;1.90;;
13421;SDS011;6782;55.904;13.396;2022-09-09T09:36:57;2.33;;;2.13;;
13421;SDS011;6782;55.904;13.396;2022-09-09T09:39:48;2.90;;;2.10;;
13421;SDS011;6782;55.904;13.396;2022-09-09T09:42:35;2.80;;;2.33;;
13421;SDS011;6782;55.904;13.396;2022-09-09T09:45:26;2.47;;;2.28;;
13421;SDS011;6782;55.904;13.396;2022-09-09T09:48:17;2.75;;;2.20;;
13421;SDS011;6782;55.904;13.396;2022-09-09T09:51:05;2.22;;;2.08;;
13421;SDS011;6782;55.904;13.396;2022-09-09T09:54:03;2.65;;;2.45;;
13421;SDS011;6782;55.904;13.396;2022-09-09T09:57:08;2.58;;;2.38;;
13421;SDS011;6782;55.904;13.396;2022-09-09T10:00:01;3.15;;;2.80;;
13421;SDS011;6782;55.904;13.396;2022-09-09T10:02:54;4.38;;;2.75;;
13421;SDS011;6782;55.904;13.396;2022-09-09T10:05:44;2.63;;;2.42;;
13421;SDS011;6782;55.904;13.396;2022-09-09T10:08:33;2.75;;;2.53;;
13421;SDS011;6782;55.904;13.396;2022-09-09T10:11:35;2.45;;;2.25;;
13421;SDS011;6782;55.904;13.396;2022-09-09T10:14:39;4.43;;;2.35;;
13421;SDS011;6782;55.904;13.396;2022-09-09T10:17:32;2.67;;;2.47;;
13421;SDS011;6782;55.904;13.396;2022-09-09T10:20:29;2.60;;;2.40;;
13421;SDS011;6782;55.904;13.396;2022-09-09T10:23:29;2.40;;;2.20;;
13421;SDS011;6782;55.904;13.396;2022-09-09T10:26:32;2.38;;;2.17;;
13421;SDS011;6782;55.904;13.396;2022-09-09T10:29:30;2.50;;;2.40;;
13421;SDS011;6782;55.904;13.396;2022-09-09T10:32:45;3.28;;;2.92;;
13421;SDS011;6782;55.904;13.396;2022-09-09T10:35:38;3.10;;;2.90;;
13421;SDS011;6782;55.904;13.396;2022-09-09T10:38:33;3.20;;;2.90;;
13421;SDS011;6782;55.904;13.396;2022-09-09T10:41:38;2.78;;;2.58;;
13421;SDS011;6782;55.904;13.396;2022-09-09T10:51:15;3.85;;;3.55;;
13421;SDS011;6782;55.904;13.396;2022-09-09T10:54:13;4.97;;;4.57;;
13421;SDS011;6782;55.904;13.396;2022-09-09T10:57:12;3.88;;;3.58;;
13421;SDS011;6782;55.904;13.396;2022-09-09T11:00:06;3.92;;;3.53;;
13421;SDS011;6782;55.904;13.396;2022-09-09T11:03:03;3.60;;;3.40;;
13421;SDS011;6782;55.904;13.396;2022-09-09T11:05:53;3.50;;;3.20;;
13421;SDS011;6782;55.904;13.396;2022-09-09T11:08:44;3.53;;;3.33;;
13421;SDS011;6782;55.904;13.396;2022-09-09T11:11:34;3.22;;;2.92;;
13421;SDS011;6782;55.904;13.396;2022-09-09T11:14:28;2.60;;;2.40;;
13421;SDS011;6782;55.904;13.396;2022-09-09T11:17:20;2.22;;;2.13;;
13421;SDS011;6782;55.904;13.396;2022-09-09T11:20:11;2.50;;;2.10;;
13421;SDS011;6782;55.904;13.396;2022-09-09T11:23:00;2.30;;;2.10;;
13421;SDS011;6782;55.904;13.396;2022-09-09T11:25:52;2.83;;;2.63;;
13421;SDS011;6782;55.904;13.396;2022-09-09T11:28:46;2.75;;;2.55;;
13421;SDS011;6782;55.904;13.396;2022-09-09T11:31:51;2.83;;;2.63;;
13421;SDS011;6782;55.904;13.396;2022-09-09T11:34:53;3.42;;;2.88;;
13421;SDS011;6782;55.904;13.396;2022-09-09T11:37:52;3.70;;;3.40;;
13421;SDS011;6782;55.904;13.396;2022-09-09T11:40:54;2.58;;;2.38;;
13421;SDS011;6782;55.904;13.396;2022-09-09T11:43:43;2.80;;;2.45;;
13421;SDS011;6782;55.904;13.396;2022-09-09T11:46:33;2.75;;;2.55;;
13421;SDS011;6782;55.904;13.396;2022-09-09T11:49:26;3.13;;;2.00;;
13421;SDS011;6782;55.904;13.396;2022-09-09T11:52:36;1.92;;;1.83;;
13421;SDS011;6782;55.904;13.396;2022-09-09T11:55:29;2.40;;;2.20;;
13421;SDS011;6782;55.904;13.396;2022-09-09T11:58:19;2.70;;;2.50;;
13421;SDS011;6782;55.904;13.396;2022-09-09T12:01:30;3.05;;;2.85;;
13421;SDS011;6782;55.904;13.396;2022-09-09T12:04:30;4.40;;;3.38;;
13421;SDS011;6782;55.904;13.396;2022-09-09T12:07:26;2.80;;;2.60;;
13421;SDS011;6782;55.904;13.396;2022-09-09T12:10:22;3.72;;;3.40;;
13421;SDS011;6782;55.904;13.396;2022-09-09T12:13:15;3.55;;;3.22;;
13421;SDS011;6782;55.904;13.396;2022-09-09T12:16:05;2.50;;;2.30;;
13421;SDS011;6782;55.904;13.396;2022-09-09T12:19:20;2.97;;;2.30;;
13421;SDS011;6782;55.904;13.396;2022-09-09T12:22:14;2.83;;;2.00;;
13421;SDS011;6782;55.904;13.396;2022-09-09T12:25:13;2.08;;;1.98;;
13421;SDS011;6782;55.904;13.396;2022-09-09T12:28:09;3.00;;;2.50;;
13421;SDS011;6782;55.904;13.396;2022-09-09T12:31:03;2.55;;;2.35;;
13421;SDS011;6782;55.904;13.396;2022-09-09T12:34:02;2.63;;;2.42;;
13421;SDS011;6782;55.904;13.396;2022-09-09T12:36:57;2.55;;;2.35;;
13421;SDS011;6782;55.904;13.396;2022-09-09T12:39:50;2.65;;;2.45;;
13421;SDS011;6782;55.904;13.396;2022-09-09T12:42:42;2.53;;;2.20;;
13421;SDS011;6782;55.904;13.396;2022-09-09T12:45:31;2.17;;;1.95;;
13421;SDS011;6782;55.904;13.396;2022-09-09T12:48:21;2.28;;;2.08;;
13421;SDS011;6782;55.904;13.396;2022-09-09T12:51:16;3.20;;;2.75;;
13421;SDS011;6782;55.904;13.396;2022-09-09T12:54:12;2.80;;;2.60;;
13421;SDS011;6782;55.904;13.396;2022-09-09T12:57:01;2.95;;;2.75;;
13421;SDS011;6782;55.904;13.396;2022-09-09T12:59:50;3.60;;;3.30;;
13421;SDS011;6782;55.904;13.396;2022-09-09T13:02:45;3.60;;;3.30;;
13421;SDS011;6782;55.904;13.396;2022-09-09T13:05:36;3.38;;;3.08;;
13421;SDS011;6782;55.904;13.396;2022-09-09T13:08:25;4.30;;;3.90;;
13421;SDS011;6782;55.904;13.396;2022-09-09T13:11:14;4.50;;;4.20;;
13421;SDS011;6782;55.904;13.396;2022-09-09T13:14:12;3.92;;;3.63;;
13421;SDS011;6782;55.904;13.396;2022-09-09T13:17:06;3.85;;;3.50;;
13421;SDS011;6782;55.904;13.396;2022-09-09T13:20:05;3.90;;;3.60;;
13421;SDS011;6782;55.904;13.396;2022-09-09T13:22:54;4.30;;;3.90;;
13421;SDS011;6782;55.904;13.396;2022-09-09T13:25:52;3.95;;;3.65;;
13421;SDS011;6782;55.904;13.396;2022-09-09T13:28:43;3.97;;;3.72;;
13421;SDS011;6782;55.904;13.396;2022-09-09T13:31:33;5.13;;;4.53;;
13421;SDS011;6782;55.904;13.396;2022-09-09T13:34:27;4.78;;;4.47;;
13421;SDS011;6782;55.904;13.396;2022-09-09T13:37:17;4.25;;;3.85;;
13421;SDS011;6782;55.904;13.396;2022-09-09T13:40:14;3.83;;;3.25;;
13421;SDS011;6782;55.904;13.396;2022-09-09T13:43:05;4.63;;;4.22;;
13421;SDS011;6782;55.904;13.396;2022-09-09T13:46:01;4.97;;;4.50;;
13421;SDS011;6782;55.904;13.396;2022-09-09T13:48:53;5.75;;;5.20;;
13421;SDS011;6782;55.904;13.396;2022-09-09T13:51:44;6.50;;;5.85;;
13421;SDS011;6782;55.904;13.396;2022-09-09T13:54:32;5.60;;;5.10;;
13421;SDS011;6782;55.904;13.396;2022-09-09T13:57:21;5.43;;;4.93;;
13421;SDS011;6782;55.904;13.396;2022-09-09T14:00:11;4.78;;;4.38;;
13421;SDS011;6782;55.904;13.396;2022-09-09T14:02:59;5.22;;;4.60;;
13421;SDS011;6782;55.904;13.396;2022-09-09T14:05:47;4.20;;;3.80;;
13421;SDS011;6782;55.904;13.396;2022-09-09T14:08:36;4.13;;;3.83;;
13421;SDS011;6782;55.904;13.396;2022-09-09T14:11:24;3.92;;;3.50;;
13421;SDS011;6782;55.904;13.396;2022-09-09T14:14:11;3.35;;;3.05;;
13421;SDS011;6782;55.904;13.396;2022-09-09T14:16:58;3.92;;;3.53;;
13421;SDS011;6782;55.904;13.396;2022-09-09T14:19:45;3.75;;;3.40;;
13421;SDS011;6782;55.904;13.396;2022-09-09T14:22:33;3.70;;;3.40;;
13421;SDS011;6782;55.904;13.396;2022-09-09T14:25:21;3.58;;;3.28;;
13421;SDS011;6782;55.904;13.396;2022-09-09T14:28:09;3.45;;;3.08;;
13421;SDS011;6782;55.904;13.396;2022-09-09T14:30:58;3.75;;;3.13;;
13421;SDS011;6782;55.904;13.396;2022-09-09T14:33:47;3.03;;;2.72;;
13421;SDS011;6782;55.904;13.396;2022-09-09T14:40:35;2.83;;;2.63;;
13421;SDS011;6782;55.904;13.396;2022-09-09T14:43:24;2.85;;;2.58;;
13421;SDS011;6782;55.904;13.396;2022-09-09T14:46:13;2.60;;;2.40;;
13421;SDS011;6782;55.904;13.396;2022-09-09T14:49:02;2.97;;;2.78;;
13421;SDS011;6782;55.904;13.396;2022-09-09T14:55:17;3.25;;;2.95;;
13421;SDS011;6782;55.904;13.396;2022-09-09T15:08:51;3.13;;;2.80;;
13421;SDS011;6782;55.904;13.396;2022-09-09T15:15:26;4.30;;;3.90;;
13421;SDS011;6782;55.904;13.396;2022-09-09T15:22:22;3.45;;;3.03;;
13421;SDS011;6782;55.904;13.396;2022-09-09T15:25:11;3.80;;;3.50;;
13421;SDS011;6782;55.904;13.396;2022-09-09T15:27:59;4.00;;;3.70;;
13421;SDS011;6782;55.904;13.396;2022-09-09T15:30:47;3.70;;;3.40;;
13421;SDS011;6782;55.904;13.396;2022-09-09T15:36:01;3.38;;;2.92;;
13421;SDS011;6782;55.904;13.396;2022-09-09T15:38:50;3.58;;;3.28;;
13421;SDS011;6782;55.904;13.396;2022-09-09T15:41:41;3.65;;;3.20;;
13421;SDS011;6782;55.904;13.396;2022-09-09T15:44:38;2.65;;;2.45;;
13421;SDS011;6782;55.904;13.396;2022-09-09T15:47:36;3.20;;;2.90;;
13421;SDS011;6782;55.904;13.396;2022-09-09T15:50:23;3.25;;;2.95;;
13421;SDS011;6782;55.904;13.396;2022-09-09T15:53:11;3.20;;;2.90;;
13421;SDS011;6782;55.904;13.396;2022-09-09T15:55:59;3.22;;;2.92;;
13421;SDS011;6782;55.904;13.396;2022-09-09T15:58:49;3.35;;;3.05;;
13421;SDS011;6782;55.904;13.396;2022-09-09T16:01:38;3.17;;;2.90;;
13421;SDS011;6782;55.904;13.396;2022-09-09T16:04:27;2.30;;;2.13;;
13421;SDS011;6782;55.904;13.396;2022-09-09T16:07:19;3.10;;;2.90;;
13421;SDS011;6782;55.904;13.396;2022-09-09T16:10:07;3.42;;;3.13;;
13421;SDS011;6782;55.904;13.396;2022-09-09T16:12:54;2.88;;;2.67;;
13421;SDS011;6782;55.904;13.396;2022-09-09T16:15:44;3.22;;;2.92;;
13421;SDS011;6782;55.904;13.396;2022-09-09T16:18:35;2.85;;;2.63;;
13421;SDS011;6782;55.904;13.396;2022-09-09T16:21:24;3.65;;;2.78;;
13421;SDS011;6782;55.904;13.396;2022-09-09T16:24:15;2.75;;;2.55;;
13421;SDS011;6782;55.904;13.396;2022-09-09T16:27:04;4.70;;;3.00;;
13421;SDS011;6782;55.904;13.396;2022-09-09T16:29:58;4.82;;;3.95;;
13421;SDS011;6782;55.904;13.396;2022-09-09T16:32:50;3.85;;;3.55;;
13421;SDS011;6782;55.904;13.396;2022-09-09T16:35:38;4.13;;;3.80;;
13421;SDS011;6782;55.904;13.396;2022-09-09T16:38:26;3.70;;;3.40;;
13421;SDS011;6782;55.904;13.396;2022-09-09T16:41:13;3.45;;;3.08;;
13421;SDS011;6782;55.904;13.396;2022-09-09T16:44:02;3.20;;;2.90;;
13421;SDS011;6782;55.904;13.396;2022-09-09T16:46:51;3.72;;;3.42;;
13421;SDS011;6782;55.904;13.396;2022-09-09T16:49:42;3.47;;;3.17;;
13421;SDS011;6782;55.904;13.396;2022-09-09T16:52:29;3.70;;;3.40;;
13421;SDS011;6782;55.904;13.396;2022-09-09T16:55:16;3.60;;;3.30;;
13421;SDS011;6782;55.904;13.396;2022-09-09T16:58:06;3.88;;;3.58;;
13421;SDS011;6782;55.904;13.396;2022-09-09T17:00:57;4.72;;;4.32;;
13421;SDS011;6782;55.904;13.396;2022-09-09T17:03:45;4.30;;;3.95;;
13421;SDS011;6782;55.904;13.396;2022-09-09T17:06:33;4.50;;;4.07;;
13421;SDS011;6782;55.904;13.396;2022-09-09T17:09:22;4.13;;;3.72;;
13421;SDS011;6782;55.904;13.396;2022-09-09T17:12:10;3.92;;;3.63;;
13421;SDS011;6782;55.904;13.396;2022-09-09T17:14:57;4.00;;;3.70;;
13421;SDS011;6782;55.904;13.396;2022-09-09T17:17:46;4.13;;;3.70;;
13421;SDS011;6782;55.904;13.396;2022-09-09T17:20:35;4.10;;;3.80;;
13421;SDS011;6782;55.904;13.396;2022-09-09T17:23:24;4.10;;;3.70;;
13421;SDS011;6782;55.904;13.396;2022-09-09T17:26:13;4.35;;;3.95;;
13421;SDS011;6782;55.904;13.396;2022-09-09T17:29:02;5.05;;;4.18;;
13421;SDS011;6782;55.904;13.396;2022-09-09T17:31:50;4.97;;;4.47;;
13421;SDS011;6782;55.904;13.396;2022-09-09T17:34:37;4.97;;;4.57;;
13421;SDS011;6782;55.904;13.396;2022-09-09T17:37:31;5.30;;;4.82;;
13421;SDS011;6782;55.904;13.396;2022-09-09T17:40:20;5.22;;;4.82;;
13421;SDS011;6782;55.904;13.396;2022-09-09T17:43:07;6.32;;;5.75;;
13421;SDS011;6782;55.904;13.396;2022-09-09T17:45:55;6.28;;;5.70;;
13421;SDS011;6782;55.904;13.396;2022-09-09T17:48:43;4.95;;;4.65;;
13421;SDS011;6782;55.904;13.396;2022-09-09T17:51:30;5.38;;;4.90;;
13421;SDS011;6782;55.904;13.396;2022-09-09T17:57:28;5.30;;;4.80;;
13421;SDS011;6782;55.904;13.396;2022-09-09T18:00:17;5.25;;;4.85;;